sensor_id;sensor_type;location;lat;lon;timestamp;pressure;altitude;pressure_sealevel;temperature;humidity
53689;BME280;39583;54.682;30.662;2022-10-16T06:59:59;100497.34;;;8.13;93.72
53689;BME280;39583;54.682;30.662;2022-10-16T07:02:26;100500.91;;;8.37;93.92
53689;BME280;39583;54.682;30.662;2022-10-16T07:04:52;100493.06;;;8.50;93.38
53689;BME280;39583;54.682;30.662;2022-10-16T07:07:18;100496.41;;;8.52;93.28
53689;BME280;39583;54.682;30.662;2022-10-16T07:09:44;100508.56;;;8.63;92.96
53689;BME280;39583;54.682;30.662;2022-10-16T07:12:11;100510.81;;;8.74;93.15
53689;BME280;39583;54.682;30.662;2022-10-16T07:14:37;100515.91;;;8.83;92.67
53689;BME280;39583;54.682;30.662;2022-10-16T07:17:03;100518.34;;;8.93;92.72
53689;BME280;39583;54.682;30.662;2022-10-16T07:19:29;100511.94;;;9.09;92.61
53689;BME280;39583;54.682;30.662;2022-10-16T07:21:55;100527.72;;;9.27;92.26
53689;BME280;39583;54.682;30.662;2022-10-16T07:24:22;100511.13;;;9.53;92.11
53689;BME280;39583;54.682;30.662;2022-10-16T07:26:49;100514.22;;;9.71;91.30
53689;BME280;39583;54.682;30.662;2022-10-16T07:29:20;100511.44;;;9.79;90.21
53689;BME280;39583;54.682;30.662;2022-10-16T07:31:48;100509.25;;;9.89;90.15
53689;BME280;39583;54.682;30.662;2022-10-16T07:34:15;100510.19;;;9.96;89.27
53689;BME280;39583;54.682;30.662;2022-10-16T07:36:42;100513.25;;;9.93;88.88
53689;BME280;39583;54.682;30.662;2022-10-16T07:56:54;100528.63;;;9.49;78.36
53689;BME280;39583;54.682;30.662;2022-10-16T07:59:21;100550.13;;;9.78;79.88
53689;BME280;39583;54.682;30.662;2022-10-16T08:01:49;100552.41;;;9.96;80.75
53689;BME280;39583;54.682;30.662;2022-10-16T08:04:15;100554.66;;;10.14;81.48
53689;BME280;39583;54.682;30.662;2022-10-16T08:06:41;100560.88;;;10.29;81.66
53689;BME280;39583;54.682;30.662;2022-10-16T08:09:08;100564.16;;;10.46;81.59
53689;BME280;39583;54.682;30.662;2022-10-16T08:11:35;100563.28;;;10.67;81.58
53689;BME280;39583;54.682;30.662;2022-10-16T08:14:01;100568.22;;;10.84;81.41
53689;BME280;39583;54.682;30.662;2022-10-16T08:16:28;100564.94;;;10.89;80.75
53689;BME280;39583;54.682;30.662;2022-10-16T08:18:54;100569.09;;;10.91;80.57
53689;BME280;39583;54.682;30.662;2022-10-16T08:21:22;100575.88;;;10.81;80.15
53689;BME280;39583;54.682;30.662;2022-10-16T08:23:50;100577.66;;;10.74;79.80
53689;BME280;39583;54.682;30.662;2022-10-16T08:26:16;100568.69;;;10.67;79.93
53689;BME280;39583;54.682;30.662;2022-10-16T08:28:43;100582.34;;;10.65;80.52
53689;BME280;39583;54.682;30.662;2022-10-16T08:31:14;100581.84;;;10.76;81.29
53689;BME280;39583;54.682;30.662;2022-10-16T08:33:43;100569.16;;;10.98;81.52
53689;BME280;39583;54.682;30.662;2022-10-16T08:36:11;100579.53;;;11.22;81.48
53689;BME280;39583;54.682;30.662;2022-10-16T08:38:38;100578.81;;;11.42;80.91
53689;BME280;39583;54.682;30.662;2022-10-16T08:49:34;100587.03;;;12.09;78.10
53689;BME280;39583;54.682;30.662;2022-10-16T08:52:00;100576.13;;;12.24;77.21
53689;BME280;39583;54.682;30.662;2022-10-16T08:54:34;100579.47;;;12.39;77.11
53689;BME280;39583;54.682;30.662;2022-10-16T08:57:13;100573.22;;;12.46;76.70
53689;BME280;39583;54.682;30.662;2022-10-16T08:59:40;100575.34;;;12.57;76.43
53689;BME280;39583;54.682;30.662;2022-10-16T09:08:06;100567.88;;;12.79;75.91
53689;BME280;39583;54.682;30.662;2022-10-16T09:11:03;100575.56;;;12.82;74.64
53689;BME280;39583;54.682;30.662;2022-10-16T09:16:32;100576.81;;;12.66;74.68
53689;BME280;39583;54.682;30.662;2022-10-16T09:19:36;100579.91;;;12.63;75.33
53689;BME280;39583;54.682;30.662;2022-10-16T09:22:15;100574.31;;;12.64;75.64
53689;BME280;39583;54.682;30.662;2022-10-16T09:24:42;100560.56;;;12.59;74.33
53689;BME280;39583;54.682;30.662;2022-10-16T09:27:13;100563.50;;;12.51;73.61
53689;BME280;39583;54.682;30.662;2022-10-16T09:29:40;100570.56;;;12.72;74.40
53689;BME280;39583;54.682;30.662;2022-10-16T09:32:15;100572.66;;;12.77;74.01
53689;BME280;39583;54.682;30.662;2022-10-16T09:34:48;100579.09;;;12.69;73.10
53689;BME280;39583;54.682;30.662;2022-10-16T09:37:18;100570.34;;;12.60;72.43
53689;BME280;39583;54.682;30.662;2022-10-16T09:39:53;100567.25;;;12.50;72.10
53689;BME280;39583;54.682;30.662;2022-10-16T09:42:32;100568.47;;;12.54;72.51
53689;BME280;39583;54.682;30.662;2022-10-16T09:44:59;100567.63;;;12.47;72.42
53689;BME280;39583;54.682;30.662;2022-10-16T09:47:28;100564.50;;;12.44;72.02
53689;BME280;39583;54.682;30.662;2022-10-16T09:50:00;100564.28;;;12.45;72.78
53689;BME280;39583;54.682;30.662;2022-10-16T09:52:30;100567.63;;;12.47;71.60
53689;BME280;39583;54.682;30.662;2022-10-16T09:54:59;100566.38;;;12.63;72.47
53689;BME280;39583;54.682;30.662;2022-10-16T09:57:25;100558.94;;;12.78;72.97
53689;BME280;39583;54.682;30.662;2022-10-16T09:59:57;100561.63;;;12.85;72.75
53689;BME280;39583;54.682;30.662;2022-10-16T10:02:44;100562.25;;;12.80;72.77
53689;BME280;39583;54.682;30.662;2022-10-16T10:05:22;100558.13;;;12.78;71.91
53689;BME280;39583;54.682;30.662;2022-10-16T10:08:02;100557.06;;;12.79;72.41
53689;BME280;39583;54.682;30.662;2022-10-16T10:10:40;100556.88;;;12.80;70.90
53689;BME280;39583;54.682;30.662;2022-10-16T10:13:18;100566.22;;;12.91;71.73
53689;BME280;39583;54.682;30.662;2022-10-16T10:15:47;100562.47;;;13.05;71.58
53689;BME280;39583;54.682;30.662;2022-10-16T10:18:21;100557.25;;;13.10;72.10
53689;BME280;39583;54.682;30.662;2022-10-16T10:21:01;100558.72;;;13.13;72.39
53689;BME280;39583;54.682;30.662;2022-10-16T10:23:29;100547.09;;;13.19;71.08
53689;BME280;39583;54.682;30.662;2022-10-16T10:29:06;100565.16;;;13.38;70.58
53689;BME280;39583;54.682;30.662;2022-10-16T10:45:43;100546.97;;;13.72;66.44
53689;BME280;39583;54.682;30.662;2022-10-16T10:51:03;100552.28;;;13.92;67.40
53689;BME280;39583;54.682;30.662;2022-10-16T11:09:31;100547.22;;;14.08;65.12
53689;BME280;39583;54.682;30.662;2022-10-16T11:12:21;100548.88;;;14.09;64.02
53689;BME280;39583;54.682;30.662;2022-10-16T11:17:39;100545.19;;;13.91;62.68
53689;BME280;39583;54.682;30.662;2022-10-16T11:20:26;100550.66;;;13.77;63.94
53689;BME280;39583;54.682;30.662;2022-10-16T11:23:02;100558.56;;;13.79;64.53
53689;BME280;39583;54.682;30.662;2022-10-16T11:25:32;100556.84;;;13.91;65.11
53689;BME280;39583;54.682;30.662;2022-10-16T11:28:15;100550.00;;;13.95;64.68
53689;BME280;39583;54.682;30.662;2022-10-16T11:31:13;100550.38;;;13.99;65.61
53689;BME280;39583;54.682;30.662;2022-10-16T11:34:00;100540.16;;;14.01;64.69
53689;BME280;39583;54.682;30.662;2022-10-16T11:47:23;100547.91;;;14.35;63.00
53689;BME280;39583;54.682;30.662;2022-10-16T11:49:55;100542.63;;;14.40;61.81
53689;BME280;39583;54.682;30.662;2022-10-16T11:52:39;100539.72;;;14.42;60.43
53689;BME280;39583;54.682;30.662;2022-10-16T11:55:17;100544.13;;;14.36;59.70
53689;BME280;39583;54.682;30.662;2022-10-16T11:57:48;100540.41;;;14.31;59.14
53689;BME280;39583;54.682;30.662;2022-10-16T12:08:52;100525.16;;;14.36;61.00
53689;BME280;39583;54.682;30.662;2022-10-16T12:16:39;100512.84;;;14.47;61.62
53689;BME280;39583;54.682;30.662;2022-10-16T12:19:17;100524.09;;;14.44;61.62
53689;BME280;39583;54.682;30.662;2022-10-16T12:21:45;100529.91;;;14.41;61.40
53689;BME280;39583;54.682;30.662;2022-10-16T12:24:43;100527.00;;;14.42;62.55
53689;BME280;39583;54.682;30.662;2022-10-16T12:27:29;100522.06;;;14.33;60.25
53689;BME280;39583;54.682;30.662;2022-10-16T12:29:59;100527.56;;;14.20;59.71
53689;BME280;39583;54.682;30.662;2022-10-16T12:32:30;100523.69;;;14.09;59.49
53689;BME280;39583;54.682;30.662;2022-10-16T12:34:59;100526.41;;;14.02;59.61
53689;BME280;39583;54.682;30.662;2022-10-16T12:37:32;100508.97;;;13.92;58.90
53689;BME280;39583;54.682;30.662;2022-10-16T12:39:59;100518.50;;;14.01;58.72
53689;BME280;39583;54.682;30.662;2022-10-16T12:42:37;100515.00;;;13.94;57.36
53689;BME280;39583;54.682;30.662;2022-10-16T12:47:53;100521.13;;;13.76;56.39
53689;BME280;39583;54.682;30.662;2022-10-16T12:50:46;100519.28;;;13.63;57.95
53689;BME280;39583;54.682;30.662;2022-10-16T12:53:21;100523.28;;;13.54;57.36
53689;BME280;39583;54.682;30.662;2022-10-16T12:55:56;100515.19;;;13.41;58.15
53689;BME280;39583;54.682;30.662;2022-10-16T13:01:13;100511.69;;;13.14;59.26
53689;BME280;39583;54.682;30.662;2022-10-16T13:04:06;100520.25;;;13.04;59.61
53689;BME280;39583;54.682;30.662;2022-10-16T13:09:45;100526.91;;;12.82;62.04
53689;BME280;39583;54.682;30.662;2022-10-16T13:18:29;100537.09;;;12.66;64.03
53689;BME280;39583;54.682;30.662;2022-10-16T13:29:08;100525.66;;;12.58;64.10
53689;BME280;39583;54.682;30.662;2022-10-16T13:31:38;100524.00;;;12.57;64.10
53689;BME280;39583;54.682;30.662;2022-10-16T13:34:05;100519.00;;;12.60;64.46
53689;BME280;39583;54.682;30.662;2022-10-16T13:36:50;100520.66;;;12.61;64.47
53689;BME280;39583;54.682;30.662;2022-10-16T13:39:30;100524.19;;;12.62;64.32
53689;BME280;39583;54.682;30.662;2022-10-16T13:42:10;100517.97;;;12.55;64.19
53689;BME280;39583;54.682;30.662;2022-10-16T13:44:46;100522.56;;;12.54;63.71
53689;BME280;39583;54.682;30.662;2022-10-16T13:47:18;100515.47;;;12.47;64.28
53689;BME280;39583;54.682;30.662;2022-10-16T13:49:46;100516.50;;;12.39;65.12
53689;BME280;39583;54.682;30.662;2022-10-16T13:52:20;100524.38;;;12.27;65.07
53689;BME280;39583;54.682;30.662;2022-10-16T13:54:47;100525.19;;;12.21;65.79
53689;BME280;39583;54.682;30.662;2022-10-16T13:57:17;100532.47;;;12.21;65.90
53689;BME280;39583;54.682;30.662;2022-10-16T13:59:44;100526.66;;;12.17;66.42
53689;BME280;39583;54.682;30.662;2022-10-16T14:04:54;100525.13;;;11.95;67.33
53689;BME280;39583;54.682;30.662;2022-10-16T14:07:26;100536.53;;;11.90;67.05
53689;BME280;39583;54.682;30.662;2022-10-16T14:09:54;100544.59;;;11.84;67.50
53689;BME280;39583;54.682;30.662;2022-10-16T14:12:22;100538.31;;;11.76;67.98
53689;BME280;39583;54.682;30.662;2022-10-16T14:14:52;100535.16;;;11.66;67.56
53689;BME280;39583;54.682;30.662;2022-10-16T14:17:23;100537.63;;;11.61;68.08
53689;BME280;39583;54.682;30.662;2022-10-16T14:19:55;100527.44;;;11.57;68.03
53689;BME280;39583;54.682;30.662;2022-10-16T14:22:38;100533.03;;;11.55;67.95
53689;BME280;39583;54.682;30.662;2022-10-16T14:28:03;100536.75;;;11.47;68.02
53689;BME280;39583;54.682;30.662;2022-10-16T14:30:32;100535.84;;;11.40;67.99
53689;BME280;39583;54.682;30.662;2022-10-16T14:33:04;100541.44;;;11.39;67.28
53689;BME280;39583;54.682;30.662;2022-10-16T14:35:37;100540.81;;;11.37;67.43
53689;BME280;39583;54.682;30.662;2022-10-16T14:38:06;100540.81;;;11.37;66.29
53689;BME280;39583;54.682;30.662;2022-10-16T14:40:47;100523.75;;;11.30;66.11
53689;BME280;39583;54.682;30.662;2022-10-16T14:43:29;100516.06;;;11.20;66.65
53689;BME280;39583;54.682;30.662;2022-10-16T14:45:57;100527.38;;;11.09;67.31
53689;BME280;39583;54.682;30.662;2022-10-16T14:48:24;100537.03;;;10.97;67.85
53689;BME280;39583;54.682;30.662;2022-10-16T14:50:52;100536.13;;;10.89;67.89
53689;BME280;39583;54.682;30.662;2022-10-16T14:53:22;100530.91;;;10.81;68.00
53689;BME280;39583;54.682;30.662;2022-10-16T14:55:48;100526.69;;;10.72;68.48
53689;BME280;39583;54.682;30.662;2022-10-16T14:58:18;100533.66;;;10.67;68.61
53689;BME280;39583;54.682;30.662;2022-10-16T15:00:46;100527.81;;;10.56;68.61
53689;BME280;39583;54.682;30.662;2022-10-16T15:03:13;100536.44;;;10.52;69.02
53689;BME280;39583;54.682;30.662;2022-10-16T15:05:39;100523.97;;;10.44;69.67
53689;BME280;39583;54.682;30.662;2022-10-16T15:08:06;100529.06;;;10.39;69.46
53689;BME280;39583;54.682;30.662;2022-10-16T15:10:38;100527.16;;;10.33;69.50
53689;BME280;39583;54.682;30.662;2022-10-16T15:13:04;100528.75;;;10.27;69.71
53689;BME280;39583;54.682;30.662;2022-10-16T15:15:35;100528.09;;;10.25;69.84
53689;BME280;39583;54.682;30.662;2022-10-16T15:18:04;100523.28;;;10.21;69.86
53689;BME280;39583;54.682;30.662;2022-10-16T15:20:35;100520.50;;;10.14;70.08
53689;BME280;39583;54.682;30.662;2022-10-16T15:23:12;100510.31;;;10.10;70.34
53689;BME280;39583;54.682;30.662;2022-10-16T15:25:50;100513.66;;;10.12;70.40
53689;BME280;39583;54.682;30.662;2022-10-16T15:28:18;100524.41;;;10.12;70.68
53689;BME280;39583;54.682;30.662;2022-10-16T15:30:45;100527.94;;;10.12;70.74
53689;BME280;39583;54.682;30.662;2022-10-16T15:33:23;100534.16;;;10.13;70.77
53689;BME280;39583;54.682;30.662;2022-10-16T15:35:51;100529.78;;;10.12;70.56
53689;BME280;39583;54.682;30.662;2022-10-16T15:38:20;100533.13;;;10.14;70.41
53689;BME280;39583;54.682;30.662;2022-10-16T15:40:48;100504.41;;;9.99;70.33
53689;BME280;39583;54.682;30.662;2022-10-16T15:43:15;100527.69;;;10.07;70.34
53689;BME280;39583;54.682;30.662;2022-10-16T15:45:41;100529.53;;;10.07;70.45
53689;BME280;39583;54.682;30.662;2022-10-16T15:48:12;100527.78;;;9.99;70.38
53689;BME280;39583;54.682;30.662;2022-10-16T15:50:40;100534.00;;;9.99;70.02
53689;BME280;39583;54.682;30.662;2022-10-16T15:53:06;100540.81;;;9.95;70.39
53689;BME280;39583;54.682;30.662;2022-10-16T15:55:34;100536.16;;;9.89;70.44
53689;BME280;39583;54.682;30.662;2022-10-16T15:58:04;100531.16;;;9.86;70.72
53689;BME280;39583;54.682;30.662;2022-10-16T16:00:31;100540.66;;;9.82;70.45
53689;BME280;39583;54.682;30.662;2022-10-16T16:02:58;100540.38;;;9.77;70.88
53689;BME280;39583;54.682;30.662;2022-10-16T16:05:24;100535.84;;;9.63;71.12
53689;BME280;39583;54.682;30.662;2022-10-16T16:07:51;100547.28;;;9.65;71.51
53689;BME280;39583;54.682;30.662;2022-10-16T16:10:18;100547.63;;;9.62;71.57
53689;BME280;39583;54.682;30.662;2022-10-16T16:12:47;100549.13;;;9.64;71.55
53689;BME280;39583;54.682;30.662;2022-10-16T16:15:19;100557.66;;;9.68;71.70
53689;BME280;39583;54.682;30.662;2022-10-16T16:17:46;100560.34;;;9.68;71.52
53689;BME280;39583;54.682;30.662;2022-10-16T16:20:14;100538.19;;;9.66;71.31
53689;BME280;39583;54.682;30.662;2022-10-16T16:22:40;100543.81;;;9.71;71.42
53689;BME280;39583;54.682;30.662;2022-10-16T16:25:07;100545.47;;;9.72;71.53
53689;BME280;39583;54.682;30.662;2022-10-16T16:27:33;100540.47;;;9.69;71.54
53689;BME280;39583;54.682;30.662;2022-10-16T16:30:01;100545.88;;;9.69;71.57
53689;BME280;39583;54.682;30.662;2022-10-16T16:32:30;100550.84;;;9.72;71.99
53689;BME280;39583;54.682;30.662;2022-10-16T16:34:56;100549.00;;;9.72;71.85
53689;BME280;39583;54.682;30.662;2022-10-16T16:37:23;100547.97;;;9.73;71.62
53689;BME280;39583;54.682;30.662;2022-10-16T16:39:50;100541.88;;;9.80;71.28
53689;BME280;39583;54.682;30.662;2022-10-16T16:42:17;100537.56;;;9.85;71.18
53689;BME280;39583;54.682;30.662;2022-10-16T16:44:43;100542.75;;;9.87;71.00
53689;BME280;39583;54.682;30.662;2022-10-16T16:47:09;100539.03;;;9.88;71.00
53689;BME280;39583;54.682;30.662;2022-10-16T16:49:36;100537.13;;;9.82;70.79
53689;BME280;39583;54.682;30.662;2022-10-16T16:52:04;100547.31;;;9.86;70.84
53689;BME280;39583;54.682;30.662;2022-10-16T16:54:32;100545.63;;;9.85;70.49
53689;BME280;39583;54.682;30.662;2022-10-16T16:56:58;100541.47;;;9.83;70.73
53689;BME280;39583;54.682;30.662;2022-10-16T16:59:25;100546.41;;;9.79;70.51
53689;BME280;39583;54.682;30.662;2022-10-16T17:01:54;100549.28;;;9.78;70.66
53689;BME280;39583;54.682;30.662;2022-10-16T17:04:20;100543.91;;;9.78;70.73
53689;BME280;39583;54.682;30.662;2022-10-16T17:06:47;100537.03;;;9.75;70.49
53689;BME280;39583;54.682;30.662;2022-10-16T17:09:14;100532.03;;;9.72;70.28
53689;BME280;39583;54.682;30.662;2022-10-16T17:11:41;100522.69;;;9.68;70.60
53689;BME280;39583;54.682;30.662;2022-10-16T17:14:11;100527.41;;;9.66;70.35
53689;BME280;39583;54.682;30.662;2022-10-16T17:16:42;100538.38;;;9.64;70.23
53689;BME280;39583;54.682;30.662;2022-10-16T17:19:15;100538.19;;;9.66;69.71
53689;BME280;39583;54.682;30.662;2022-10-16T17:21:43;100536.50;;;9.65;70.08
53689;BME280;39583;54.682;30.662;2022-10-16T17:24:10;100531.41;;;9.70;69.64
53689;BME280;39583;54.682;30.662;2022-10-16T17:26:37;100532.66;;;9.74;69.38
53689;BME280;39583;54.682;30.662;2022-10-16T17:29:06;100534.19;;;9.77;69.18
53689;BME280;39583;54.682;30.662;2022-10-16T17:31:37;100536.00;;;9.76;68.38
53689;BME280;39583;54.682;30.662;2022-10-16T17:34:06;100538.16;;;9.81;68.32
53689;BME280;39583;54.682;30.662;2022-10-16T17:36:35;100546.22;;;9.81;68.07
53689;BME280;39583;54.682;30.662;2022-10-16T17:39:06;100527.50;;;9.72;68.20
53689;BME280;39583;54.682;30.662;2022-10-16T17:41:34;100543.09;;;9.77;67.56
53689;BME280;39583;54.682;30.662;2022-10-16T17:44:04;100534.53;;;9.73;67.62
53689;BME280;39583;54.682;30.662;2022-10-16T17:46:30;100541.22;;;9.78;67.96
53689;BME280;39583;54.682;30.662;2022-10-16T17:48:58;100541.38;;;9.76;67.82
53689;BME280;39583;54.682;30.662;2022-10-16T17:51:29;100523.78;;;9.73;67.89
53689;BME280;39583;54.682;30.662;2022-10-16T17:53:58;100526.66;;;9.72;68.03
53689;BME280;39583;54.682;30.662;2022-10-16T17:56:26;100539.66;;;9.68;68.35
53689;BME280;39583;54.682;30.662;2022-10-16T17:58:55;100542.25;;;9.62;68.45
53689;BME280;39583;54.682;30.662;2022-10-16T18:01:30;100543.66;;;9.58;68.69
53689;BME280;39583;54.682;30.662;2022-10-16T18:04:00;100536.78;;;9.55;69.15
53689;BME280;39583;54.682;30.662;2022-10-16T18:06:27;100522.78;;;9.45;69.29
53689;BME280;39583;54.682;30.662;2022-10-16T18:08:56;100544.22;;;9.53;69.48
53689;BME280;39583;54.682;30.662;2022-10-16T18:11:25;100536.69;;;9.49;69.32
53689;BME280;39583;54.682;30.662;2022-10-16T18:13:55;100555.16;;;9.52;69.22
53689;BME280;39583;54.682;30.662;2022-10-16T18:16:22;100550.50;;;9.45;69.56
53689;BME280;39583;54.682;30.662;2022-10-16T18:18:50;100561.91;;;9.48;69.61
53689;BME280;39583;54.682;30.662;2022-10-16T18:21:20;100559.59;;;9.44;69.71
53689;BME280;39583;54.682;30.662;2022-10-16T18:23:48;100559.13;;;9.41;69.64
53689;BME280;39583;54.682;30.662;2022-10-16T18:26:16;100554.97;;;9.38;69.84
53689;BME280;39583;54.682;30.662;2022-10-16T18:28:42;100554.50;;;9.35;69.66
53689;BME280;39583;54.682;30.662;2022-10-16T18:31:14;100551.53;;;9.30;69.61
53689;BME280;39583;54.682;30.662;2022-10-16T18:33:42;100543.84;;;9.27;69.90
